sensor_id;sensor_type;location;lat;lon;timestamp;temperature;humidity
70548;DHT22;58099;43.406;3.698;2023-05-31T00:00:17;20.50;99.90
70548;DHT22;58099;43.406;3.698;2023-05-31T00:02:42;20.40;99.90
70548;DHT22;58099;43.406;3.698;2023-05-31T00:05:09;20.30;99.90
70548;DHT22;58099;43.406;3.698;2023-05-31T00:07:34;20.30;99.90
70548;DHT22;58099;43.406;3.698;2023-05-31T00:10:00;20.30;99.90
70548;DHT22;58099;43.406;3.698;2023-05-31T00:12:26;20.30;99.90
70548;DHT22;58099;43.406;3.698;2023-05-31T00:14:52;20.30;99.90
70548;DHT22;58099;43.406;3.698;2023-05-31T00:17:17;20.30;99.90
70548;DHT22;58099;43.406;3.698;2023-05-31T00:19:43;20.20;99.90
70548;DHT22;58099;43.406;3.698;2023-05-31T00:22:09;20.20;99.90
70548;DHT22;58099;43.406;3.698;2023-05-31T00:24:36;20.10;99.90
70548;DHT22;58099;43.406;3.698;2023-05-31T00:27:01;20.00;99.90
70548;DHT22;58099;43.406;3.698;2023-05-31T00:29:28;20.10;99.90
70548;DHT22;58099;43.406;3.698;2023-05-31T00:31:54;20.10;99.90
70548;DHT22;58099;43.406;3.698;2023-05-31T00:34:20;20.10;99.90
70548;DHT22;58099;43.406;3.698;2023-05-31T00:36:45;20.00;99.90
70548;DHT22;58099;43.406;3.698;2023-05-31T00:39:11;19.90;99.90
70548;DHT22;58099;43.406;3.698;2023-05-31T00:41:37;19.60;99.90
70548;DHT22;58099;43.406;3.698;2023-05-31T00:44:02;19.60;99.90
70548;DHT22;58099;43.406;3.698;2023-05-31T00:46:31;19.60;99.90
70548;DHT22;58099;43.406;3.698;2023-05-31T00:48:57;19.80;99.90
70548;DHT22;58099;43.406;3.698;2023-05-31T00:51:24;20.00;99.90
70548;DHT22;58099;43.406;3.698;2023-05-31T00:53:52;20.00;99.90
70548;DHT22;58099;43.406;3.698;2023-05-31T00:56:18;20.00;99.90
70548;DHT22;58099;43.406;3.698;2023-05-31T00:58:44;20.00;99.90
70548;DHT22;58099;43.406;3.698;2023-05-31T01:01:13;20.00;99.90
70548;DHT22;58099;43.406;3.698;2023-05-31T01:03:39;20.00;99.90
70548;DHT22;58099;43.406;3.698;2023-05-31T01:06:05;20.00;99.90
70548;DHT22;58099;43.406;3.698;2023-05-31T01:08:31;19.90;99.90
70548;DHT22;58099;43.406;3.698;2023-05-31T01:11:02;19.90;99.90
70548;DHT22;58099;43.406;3.698;2023-05-31T01:13:35;19.90;99.90
70548;DHT22;58099;43.406;3.698;2023-05-31T01:18:43;19.70;99.90
70548;DHT22;58099;43.406;3.698;2023-05-31T01:21:16;19.70;99.90
70548;DHT22;58099;43.406;3.698;2023-05-31T01:26:37;19.70;99.90
70548;DHT22;58099;43.406;3.698;2023-05-31T01:29:07;19.60;99.90
70548;DHT22;58099;43.406;3.698;2023-05-31T01:31:34;19.60;99.90
70548;DHT22;58099;43.406;3.698;2023-05-31T01:34:03;19.60;99.90
70548;DHT22;58099;43.406;3.698;2023-05-31T01:36:29;19.50;99.90
70548;DHT22;58099;43.406;3.698;2023-05-31T01:38:56;19.50;99.90
70548;DHT22;58099;43.406;3.698;2023-05-31T01:41:24;19.60;99.90
70548;DHT22;58099;43.406;3.698;2023-05-31T01:43:51;19.60;99.90
70548;DHT22;58099;43.406;3.698;2023-05-31T01:46:17;19.60;99.90
70548;DHT22;58099;43.406;3.698;2023-05-31T01:48:45;19.70;99.90
70548;DHT22;58099;43.406;3.698;2023-05-31T01:51:12;19.60;99.90
70548;DHT22;58099;43.406;3.698;2023-05-31T01:53:41;19.60;99.90
70548;DHT22;58099;43.406;3.698;2023-05-31T01:56:08;19.60;99.90
70548;DHT22;58099;43.406;3.698;2023-05-31T01:58:36;19.50;99.90
70548;DHT22;58099;43.406;3.698;2023-05-31T02:01:02;19.50;99.90
70548;DHT22;58099;43.406;3.698;2023-05-31T02:03:28;19.50;99.90
70548;DHT22;58099;43.406;3.698;2023-05-31T02:05:55;19.40;99.90
70548;DHT22;58099;43.406;3.698;2023-05-31T02:08:22;19.40;99.90
70548;DHT22;58099;43.406;3.698;2023-05-31T02:10:47;19.40;99.90
70548;DHT22;58099;43.406;3.698;2023-05-31T02:13:13;19.30;99.90
70548;DHT22;58099;43.406;3.698;2023-05-31T02:15:39;19.20;99.90
70548;DHT22;58099;43.406;3.698;2023-05-31T02:18:07;19.20;99.90
70548;DHT22;58099;43.406;3.698;2023-05-31T02:20:33;19.10;99.90
70548;DHT22;58099;43.406;3.698;2023-05-31T02:22:59;19.20;99.90
70548;DHT22;58099;43.406;3.698;2023-05-31T02:25:25;19.30;99.90
70548;DHT22;58099;43.406;3.698;2023-05-31T02:27:51;19.20;99.90
70548;DHT22;58099;43.406;3.698;2023-05-31T02:30:17;19.30;99.90
70548;DHT22;58099;43.406;3.698;2023-05-31T02:32:43;19.30;99.90
70548;DHT22;58099;43.406;3.698;2023-05-31T02:35:10;19.30;99.90
70548;DHT22;58099;43.406;3.698;2023-05-31T02:37:38;19.30;99.90
70548;DHT22;58099;43.406;3.698;2023-05-31T02:40:05;19.30;99.90
70548;DHT22;58099;43.406;3.698;2023-05-31T02:42:35;19.40;99.90
70548;DHT22;58099;43.406;3.698;2023-05-31T02:45:02;19.40;99.90
70548;DHT22;58099;43.406;3.698;2023-05-31T02:47:28;19.30;99.90
70548;DHT22;58099;43.406;3.698;2023-05-31T02:49:53;19.40;99.90
70548;DHT22;58099;43.406;3.698;2023-05-31T02:52:19;19.40;99.90
70548;DHT22;58099;43.406;3.698;2023-05-31T02:54:46;19.40;99.90
70548;DHT22;58099;43.406;3.698;2023-05-31T02:57:11;19.40;99.90
70548;DHT22;58099;43.406;3.698;2023-05-31T02:59:37;19.50;99.90
70548;DHT22;58099;43.406;3.698;2023-05-31T03:02:03;19.50;99.90
70548;DHT22;58099;43.406;3.698;2023-05-31T03:04:30;19.60;99.90
70548;DHT22;58099;43.406;3.698;2023-05-31T03:06:56;19.60;99.90
70548;DHT22;58099;43.406;3.698;2023-05-31T03:09:22;19.70;99.90
70548;DHT22;58099;43.406;3.698;2023-05-31T03:11:47;19.70;99.90
70548;DHT22;58099;43.406;3.698;2023-05-31T03:14:13;19.60;99.90
70548;DHT22;58099;43.406;3.698;2023-05-31T03:16:39;19.60;99.90
70548;DHT22;58099;43.406;3.698;2023-05-31T03:19:04;19.60;99.90
70548;DHT22;58099;43.406;3.698;2023-05-31T03:21:30;19.60;99.90
70548;DHT22;58099;43.406;3.698;2023-05-31T03:23:56;19.50;99.90
70548;DHT22;58099;43.406;3.698;2023-05-31T03:26:21;19.60;99.90
70548;DHT22;58099;43.406;3.698;2023-05-31T03:28:47;19.70;99.90
70548;DHT22;58099;43.406;3.698;2023-05-31T03:31:13;19.70;99.90
70548;DHT22;58099;43.406;3.698;2023-05-31T03:33:38;19.80;99.90
70548;DHT22;58099;43.406;3.698;2023-05-31T03:36:04;19.90;99.90
70548;DHT22;58099;43.406;3.698;2023-05-31T03:38:30;19.90;99.90
70548;DHT22;58099;43.406;3.698;2023-05-31T03:40:55;19.90;99.90
70548;DHT22;58099;43.406;3.698;2023-05-31T03:43:21;20.00;99.90
70548;DHT22;58099;43.406;3.698;2023-05-31T03:45:47;20.00;99.90
70548;DHT22;58099;43.406;3.698;2023-05-31T03:48:12;20.10;99.90
70548;DHT22;58099;43.406;3.698;2023-05-31T03:50:43;20.00;99.90
70548;DHT22;58099;43.406;3.698;2023-05-31T03:53:09;19.90;99.90
70548;DHT22;58099;43.406;3.698;2023-05-31T03:55:35;19.70;99.90
70548;DHT22;58099;43.406;3.698;2023-05-31T03:58:01;19.60;99.90
70548;DHT22;58099;43.406;3.698;2023-05-31T04:00:28;19.50;99.90
70548;DHT22;58099;43.406;3.698;2023-05-31T04:02:54;19.40;99.90
70548;DHT22;58099;43.406;3.698;2023-05-31T04:05:20;19.30;99.90
70548;DHT22;58099;43.406;3.698;2023-05-31T04:07:45;19.40;99.90
70548;DHT22;58099;43.406;3.698;2023-05-31T04:10:11;19.40;99.90
70548;DHT22;58099;43.406;3.698;2023-05-31T04:12:37;19.40;99.90
70548;DHT22;58099;43.406;3.698;2023-05-31T04:15:03;19.40;99.90
70548;DHT22;58099;43.406;3.698;2023-05-31T04:17:28;19.50;99.90
70548;DHT22;58099;43.406;3.698;2023-05-31T04:19:54;19.50;99.90
70548;DHT22;58099;43.406;3.698;2023-05-31T04:22:20;19.50;99.90
70548;DHT22;58099;43.406;3.698;2023-05-31T04:24:46;19.50;99.90
70548;DHT22;58099;43.406;3.698;2023-05-31T04:27:12;19.50;99.90
70548;DHT22;58099;43.406;3.698;2023-05-31T04:29:44;19.40;99.90
70548;DHT22;58099;43.406;3.698;2023-05-31T04:32:11;19.40;99.90
70548;DHT22;58099;43.406;3.698;2023-05-31T04:34:40;19.40;99.90
70548;DHT22;58099;43.406;3.698;2023-05-31T04:37:06;19.40;99.90
70548;DHT22;58099;43.406;3.698;2023-05-31T04:39:32;19.40;99.90
70548;DHT22;58099;43.406;3.698;2023-05-31T04:41:58;19.40;99.90
70548;DHT22;58099;43.406;3.698;2023-05-31T04:44:24;19.50;99.90
70548;DHT22;58099;43.406;3.698;2023-05-31T04:46:50;19.50;99.90
70548;DHT22;58099;43.406;3.698;2023-05-31T04:49:16;19.50;99.90
70548;DHT22;58099;43.406;3.698;2023-05-31T04:51:42;19.50;99.90
70548;DHT22;58099;43.406;3.698;2023-05-31T04:54:07;19.60;99.90
70548;DHT22;58099;43.406;3.698;2023-05-31T04:56:33;19.60;99.90
70548;DHT22;58099;43.406;3.698;2023-05-31T04:58:59;19.60;99.90
70548;DHT22;58099;43.406;3.698;2023-05-31T05:01:25;19.50;99.90
70548;DHT22;58099;43.406;3.698;2023-05-31T05:03:52;19.60;99.90
70548;DHT22;58099;43.406;3.698;2023-05-31T05:06:19;19.60;99.90
70548;DHT22;58099;43.406;3.698;2023-05-31T05:08:45;19.60;99.90
70548;DHT22;58099;43.406;3.698;2023-05-31T05:11:12;19.60;99.90
70548;DHT22;58099;43.406;3.698;2023-05-31T05:13:37;19.60;99.90
70548;DHT22;58099;43.406;3.698;2023-05-31T05:16:03;19.70;99.90
70548;DHT22;58099;43.406;3.698;2023-05-31T05:18:30;19.70;99.90
70548;DHT22;58099;43.406;3.698;2023-05-31T05:20:56;19.80;99.90
70548;DHT22;58099;43.406;3.698;2023-05-31T05:23:22;19.90;99.90
70548;DHT22;58099;43.406;3.698;2023-05-31T05:25:48;19.90;99.90
70548;DHT22;58099;43.406;3.698;2023-05-31T05:28:14;20.00;99.90
70548;DHT22;58099;43.406;3.698;2023-05-31T05:30:40;20.10;99.90
70548;DHT22;58099;43.406;3.698;2023-05-31T05:33:06;20.10;99.90
70548;DHT22;58099;43.406;3.698;2023-05-31T05:35:32;20.20;99.90
70548;DHT22;58099;43.406;3.698;2023-05-31T05:37:58;20.30;99.90
70548;DHT22;58099;43.406;3.698;2023-05-31T05:40:25;20.40;99.90
70548;DHT22;58099;43.406;3.698;2023-05-31T05:42:53;20.40;99.90
70548;DHT22;58099;43.406;3.698;2023-05-31T05:45:19;20.50;99.90
70548;DHT22;58099;43.406;3.698;2023-05-31T05:47:44;20.60;99.90
70548;DHT22;58099;43.406;3.698;2023-05-31T05:50:13;20.70;99.90
70548;DHT22;58099;43.406;3.698;2023-05-31T05:52:39;20.90;99.90
70548;DHT22;58099;43.406;3.698;2023-05-31T05:55:05;21.00;99.90
70548;DHT22;58099;43.406;3.698;2023-05-31T05:57:31;21.10;99.90
70548;DHT22;58099;43.406;3.698;2023-05-31T05:59:57;21.10;99.90
70548;DHT22;58099;43.406;3.698;2023-05-31T06:02:23;21.00;99.90
70548;DHT22;58099;43.406;3.698;2023-05-31T06:04:49;21.00;99.90
70548;DHT22;58099;43.406;3.698;2023-05-31T06:07:18;21.20;99.90
70548;DHT22;58099;43.406;3.698;2023-05-31T06:09:45;21.00;99.90
70548;DHT22;58099;43.406;3.698;2023-05-31T06:12:11;20.80;99.90
70548;DHT22;58099;43.406;3.698;2023-05-31T06:14:37;20.70;99.90
70548;DHT22;58099;43.406;3.698;2023-05-31T06:17:03;20.60;99.90
70548;DHT22;58099;43.406;3.698;2023-05-31T06:19:29;20.60;99.90
70548;DHT22;58099;43.406;3.698;2023-05-31T06:21:55;20.60;99.90
70548;DHT22;58099;43.406;3.698;2023-05-31T06:24:23;20.60;99.90
70548;DHT22;58099;43.406;3.698;2023-05-31T06:26:49;20.60;99.90
70548;DHT22;58099;43.406;3.698;2023-05-31T06:29:15;20.50;99.90
70548;DHT22;58099;43.406;3.698;2023-05-31T06:31:41;20.60;99.90
70548;DHT22;58099;43.406;3.698;2023-05-31T06:34:07;20.70;99.90
70548;DHT22;58099;43.406;3.698;2023-05-31T06:36:33;20.90;99.90
70548;DHT22;58099;43.406;3.698;2023-05-31T06:38:59;21.00;99.90
70548;DHT22;58099;43.406;3.698;2023-05-31T06:41:25;21.10;99.90
70548;DHT22;58099;43.406;3.698;2023-05-31T06:43:52;21.10;99.90
70548;DHT22;58099;43.406;3.698;2023-05-31T06:46:17;21.00;99.90
70548;DHT22;58099;43.406;3.698;2023-05-31T06:48:43;20.90;99.90
70548;DHT22;58099;43.406;3.698;2023-05-31T06:51:09;20.90;99.90
70548;DHT22;58099;43.406;3.698;2023-05-31T06:53:35;21.10;99.90
70548;DHT22;58099;43.406;3.698;2023-05-31T06:56:00;21.40;99.90
70548;DHT22;58099;43.406;3.698;2023-05-31T06:58:29;21.50;99.90
70548;DHT22;58099;43.406;3.698;2023-05-31T07:00:58;21.50;99.90
70548;DHT22;58099;43.406;3.698;2023-05-31T07:03:24;21.50;99.90
70548;DHT22;58099;43.406;3.698;2023-05-31T07:05:50;21.50;99.90
70548;DHT22;58099;43.406;3.698;2023-05-31T07:08:16;21.50;99.90
70548;DHT22;58099;43.406;3.698;2023-05-31T07:10:42;21.50;99.90
70548;DHT22;58099;43.406;3.698;2023-05-31T07:13:07;21.50;99.90
70548;DHT22;58099;43.406;3.698;2023-05-31T07:15:33;21.30;99.90
70548;DHT22;58099;43.406;3.698;2023-05-31T07:17:59;21.40;99.90
70548;DHT22;58099;43.406;3.698;2023-05-31T07:20:25;21.50;99.90
70548;DHT22;58099;43.406;3.698;2023-05-31T07:22:50;21.70;99.90
70548;DHT22;58099;43.406;3.698;2023-05-31T07:25:17;21.70;99.90
70548;DHT22;58099;43.406;3.698;2023-05-31T07:27:42;21.60;99.90
70548;DHT22;58099;43.406;3.698;2023-05-31T07:30:08;21.60;99.90
70548;DHT22;58099;43.406;3.698;2023-05-31T07:32:34;21.50;99.90
70548;DHT22;58099;43.406;3.698;2023-05-31T07:35:00;21.60;99.90
70548;DHT22;58099;43.406;3.698;2023-05-31T07:37:26;21.80;99.90
70548;DHT22;58099;43.406;3.698;2023-05-31T07:39:51;21.90;99.90
70548;DHT22;58099;43.406;3.698;2023-05-31T07:42:17;21.80;99.90
70548;DHT22;58099;43.406;3.698;2023-05-31T07:44:42;21.70;99.90
70548;DHT22;58099;43.406;3.698;2023-05-31T07:47:08;21.70;99.90
70548;DHT22;58099;43.406;3.698;2023-05-31T07:49:34;21.80;99.90
70548;DHT22;58099;43.406;3.698;2023-05-31T07:52:00;21.80;99.90
70548;DHT22;58099;43.406;3.698;2023-05-31T07:54:26;21.90;99.90
70548;DHT22;58099;43.406;3.698;2023-05-31T07:56:52;21.80;99.90
70548;DHT22;58099;43.406;3.698;2023-05-31T07:59:17;21.90;99.90
70548;DHT22;58099;43.406;3.698;2023-05-31T08:01:43;22.00;99.90
70548;DHT22;58099;43.406;3.698;2023-05-31T08:04:10;21.90;99.90
70548;DHT22;58099;43.406;3.698;2023-05-31T08:06:36;22.10;99.90
70548;DHT22;58099;43.406;3.698;2023-05-31T08:09:05;22.10;99.90
70548;DHT22;58099;43.406;3.698;2023-05-31T08:11:32;22.40;99.90
70548;DHT22;58099;43.406;3.698;2023-05-31T08:14:01;22.70;99.90
70548;DHT22;58099;43.406;3.698;2023-05-31T08:16:26;23.40;99.90
70548;DHT22;58099;43.406;3.698;2023-05-31T08:18:52;23.60;99.90
70548;DHT22;58099;43.406;3.698;2023-05-31T08:21:18;23.70;99.90
70548;DHT22;58099;43.406;3.698;2023-05-31T08:23:43;23.60;99.90
70548;DHT22;58099;43.406;3.698;2023-05-31T08:26:09;23.70;99.90
70548;DHT22;58099;43.406;3.698;2023-05-31T08:28:35;23.60;99.90
70548;DHT22;58099;43.406;3.698;2023-05-31T08:31:01;23.50;99.90
70548;DHT22;58099;43.406;3.698;2023-05-31T08:33:28;23.20;99.90
70548;DHT22;58099;43.406;3.698;2023-05-31T08:35:58;23.20;99.90
70548;DHT22;58099;43.406;3.698;2023-05-31T08:38:28;23.10;99.90
70548;DHT22;58099;43.406;3.698;2023-05-31T08:40:55;23.10;99.90
70548;DHT22;58099;43.406;3.698;2023-05-31T08:43:22;23.00;99.90
70548;DHT22;58099;43.406;3.698;2023-05-31T08:45:51;22.80;99.90
70548;DHT22;58099;43.406;3.698;2023-05-31T08:50:43;22.80;99.90
70548;DHT22;58099;43.406;3.698;2023-05-31T08:53:10;22.80;99.90
70548;DHT22;58099;43.406;3.698;2023-05-31T08:55:37;22.80;99.90
70548;DHT22;58099;43.406;3.698;2023-05-31T08:58:04;23.00;99.90
70548;DHT22;58099;43.406;3.698;2023-05-31T09:00:32;22.80;99.90
70548;DHT22;58099;43.406;3.698;2023-05-31T09:03:01;23.20;99.90
70548;DHT22;58099;43.406;3.698;2023-05-31T09:05:27;22.90;99.90
70548;DHT22;58099;43.406;3.698;2023-05-31T09:07:53;22.60;99.90
70548;DHT22;58099;43.406;3.698;2023-05-31T09:10:19;22.60;99.90
70548;DHT22;58099;43.406;3.698;2023-05-31T09:12:45;22.80;99.90
70548;DHT22;58099;43.406;3.698;2023-05-31T09:15:13;23.00;99.90
70548;DHT22;58099;43.406;3.698;2023-05-31T09:17:44;23.30;99.90
70548;DHT22;58099;43.406;3.698;2023-05-31T09:20:11;23.60;99.90
70548;DHT22;58099;43.406;3.698;2023-05-31T09:22:37;23.80;99.90
70548;DHT22;58099;43.406;3.698;2023-05-31T09:25:03;23.70;99.90
70548;DHT22;58099;43.406;3.698;2023-05-31T09:27:36;23.90;99.90
70548;DHT22;58099;43.406;3.698;2023-05-31T09:30:10;23.60;99.90
70548;DHT22;58099;43.406;3.698;2023-05-31T09:32:36;23.50;99.90
70548;DHT22;58099;43.406;3.698;2023-05-31T09:35:16;23.60;99.90
70548;DHT22;58099;43.406;3.698;2023-05-31T09:37:46;24.10;99.90
70548;DHT22;58099;43.406;3.698;2023-05-31T09:40:25;24.00;99.90
70548;DHT22;58099;43.406;3.698;2023-05-31T09:42:52;23.80;99.90
70548;DHT22;58099;43.406;3.698;2023-05-31T09:45:19;24.00;99.90
70548;DHT22;58099;43.406;3.698;2023-05-31T09:47:46;24.00;99.60
70548;DHT22;58099;43.406;3.698;2023-05-31T09:50:16;24.10;99.60
70548;DHT22;58099;43.406;3.698;2023-05-31T09:52:47;24.00;99.20
70548;DHT22;58099;43.406;3.698;2023-05-31T09:55:15;24.20;99.20
70548;DHT22;58099;43.406;3.698;2023-05-31T09:57:42;23.90;98.90
70548;DHT22;58099;43.406;3.698;2023-05-31T10:00:18;23.90;99.30
70548;DHT22;58099;43.406;3.698;2023-05-31T10:02:46;23.30;99.90
70548;DHT22;58099;43.406;3.698;2023-05-31T10:05:13;23.30;99.90
70548;DHT22;58099;43.406;3.698;2023-05-31T10:07:40;23.30;99.90
70548;DHT22;58099;43.406;3.698;2023-05-31T10:10:07;23.30;99.90
70548;DHT22;58099;43.406;3.698;2023-05-31T10:12:45;23.00;99.90
70548;DHT22;58099;43.406;3.698;2023-05-31T10:15:15;23.10;99.90
70548;DHT22;58099;43.406;3.698;2023-05-31T10:20:21;23.10;99.90
70548;DHT22;58099;43.406;3.698;2023-05-31T10:22:52;22.90;99.90
70548;DHT22;58099;43.406;3.698;2023-05-31T10:25:34;23.00;99.90
70548;DHT22;58099;43.406;3.698;2023-05-31T10:28:09;22.90;99.90
70548;DHT22;58099;43.406;3.698;2023-05-31T10:30:38;23.20;99.90
70548;DHT22;58099;43.406;3.698;2023-05-31T10:33:12;23.20;99.90
70548;DHT22;58099;43.406;3.698;2023-05-31T10:35:38;23.20;99.90
70548;DHT22;58099;43.406;3.698;2023-05-31T10:38:04;23.60;99.90
70548;DHT22;58099;43.406;3.698;2023-05-31T10:40:39;23.50;99.90
70548;DHT22;58099;43.406;3.698;2023-05-31T10:43:19;23.10;99.90
70548;DHT22;58099;43.406;3.698;2023-05-31T10:45:51;22.90;99.90
70548;DHT22;58099;43.406;3.698;2023-05-31T10:51:01;22.70;99.90
70548;DHT22;58099;43.406;3.698;2023-05-31T10:53:31;22.70;99.90
70548;DHT22;58099;43.406;3.698;2023-05-31T10:56:05;22.50;99.90
70548;DHT22;58099;43.406;3.698;2023-05-31T10:58:36;22.60;99.90
70548;DHT22;58099;43.406;3.698;2023-05-31T11:01:08;22.50;99.90
70548;DHT22;58099;43.406;3.698;2023-05-31T11:03:35;22.50;99.90
70548;DHT22;58099;43.406;3.698;2023-05-31T11:06:02;22.60;99.90
70548;DHT22;58099;43.406;3.698;2023-05-31T11:08:29;22.50;99.90
70548;DHT22;58099;43.406;3.698;2023-05-31T11:14:06;22.50;99.90
70548;DHT22;58099;43.406;3.698;2023-05-31T11:16:33;22.70;99.90
70548;DHT22;58099;43.406;3.698;2023-05-31T11:19:35;22.60;99.90
70548;DHT22;58099;43.406;3.698;2023-05-31T11:22:13;22.70;99.90
70548;DHT22;58099;43.406;3.698;2023-05-31T11:24:47;22.70;99.90
70548;DHT22;58099;43.406;3.698;2023-05-31T11:27:17;22.80;99.90
70548;DHT22;58099;43.406;3.698;2023-05-31T11:32:21;23.10;99.90
70548;DHT22;58099;43.406;3.698;2023-05-31T11:34:58;23.00;99.90
70548;DHT22;58099;43.406;3.698;2023-05-31T11:37:36;23.00;99.90
70548;DHT22;58099;43.406;3.698;2023-05-31T11:40:12;22.90;99.90
70548;DHT22;58099;43.406;3.698;2023-05-31T11:42:40;23.10;99.90
70548;DHT22;58099;43.406;3.698;2023-05-31T11:45:11;23.20;99.90
70548;DHT22;58099;43.406;3.698;2023-05-31T11:47:53;23.70;99.90
70548;DHT22;58099;43.406;3.698;2023-05-31T11:50:20;23.70;99.90
70548;DHT22;58099;43.406;3.698;2023-05-31T11:52:49;23.70;99.90
70548;DHT22;58099;43.406;3.698;2023-05-31T11:55:15;23.80;99.90
70548;DHT22;58099;43.406;3.698;2023-05-31T11:57:45;24.10;99.90
70548;DHT22;58099;43.406;3.698;2023-05-31T12:00:12;23.60;99.90
70548;DHT22;58099;43.406;3.698;2023-05-31T12:02:41;23.70;99.90
70548;DHT22;58099;43.406;3.698;2023-05-31T12:05:16;23.60;99.90
70548;DHT22;58099;43.406;3.698;2023-05-31T12:07:42;23.20;99.90
70548;DHT22;58099;43.406;3.698;2023-05-31T12:10:09;23.30;99.90
70548;DHT22;58099;43.406;3.698;2023-05-31T12:12:35;23.20;99.90
70548;DHT22;58099;43.406;3.698;2023-05-31T12:15:01;23.40;99.90
70548;DHT22;58099;43.406;3.698;2023-05-31T12:17:30;23.00;99.90
70548;DHT22;58099;43.406;3.698;2023-05-31T12:19:56;22.90;99.90
70548;DHT22;58099;43.406;3.698;2023-05-31T12:22:22;23.30;99.90
70548;DHT22;58099;43.406;3.698;2023-05-31T12:24:52;23.10;99.90
70548;DHT22;58099;43.406;3.698;2023-05-31T12:27:24;23.10;99.90
70548;DHT22;58099;43.406;3.698;2023-05-31T12:29:54;23.00;99.90
70548;DHT22;58099;43.406;3.698;2023-05-31T12:32:21;23.50;99.90
70548;DHT22;58099;43.406;3.698;2023-05-31T12:34:47;23.20;99.90
70548;DHT22;58099;43.406;3.698;2023-05-31T12:37:13;23.10;99.90
70548;DHT22;58099;43.406;3.698;2023-05-31T12:39:39;23.30;99.90
70548;DHT22;58099;43.406;3.698;2023-05-31T12:42:06;23.20;99.90
70548;DHT22;58099;43.406;3.698;2023-05-31T12:44:32;23.00;99.90
70548;DHT22;58099;43.406;3.698;2023-05-31T12:47:03;23.10;99.90
70548;DHT22;58099;43.406;3.698;2023-05-31T12:49:33;23.20;99.90
70548;DHT22;58099;43.406;3.698;2023-05-31T12:52:09;23.10;99.90
70548;DHT22;58099;43.406;3.698;2023-05-31T12:54:39;23.00;99.90
70548;DHT22;58099;43.406;3.698;2023-05-31T12:57:07;23.10;99.90
70548;DHT22;58099;43.406;3.698;2023-05-31T12:59:33;22.70;99.90
70548;DHT22;58099;43.406;3.698;2023-05-31T13:01:59;22.70;99.90
70548;DHT22;58099;43.406;3.698;2023-05-31T13:04:25;22.70;99.90
70548;DHT22;58099;43.406;3.698;2023-05-31T13:06:52;22.80;99.90
70548;DHT22;58099;43.406;3.698;2023-05-31T13:09:18;22.80;99.90
70548;DHT22;58099;43.406;3.698;2023-05-31T13:11:44;22.70;99.90
70548;DHT22;58099;43.406;3.698;2023-05-31T13:14:23;22.50;99.90
70548;DHT22;58099;43.406;3.698;2023-05-31T13:16:48;22.50;99.90
70548;DHT22;58099;43.406;3.698;2023-05-31T13:19:14;22.10;99.90
70548;DHT22;58099;43.406;3.698;2023-05-31T13:21:40;22.00;99.90
70548;DHT22;58099;43.406;3.698;2023-05-31T13:24:07;21.90;99.90
70548;DHT22;58099;43.406;3.698;2023-05-31T13:26:34;21.80;99.90
70548;DHT22;58099;43.406;3.698;2023-05-31T13:29:02;21.80;99.90
70548;DHT22;58099;43.406;3.698;2023-05-31T13:31:30;22.00;99.90
70548;DHT22;58099;43.406;3.698;2023-05-31T13:33:56;21.90;99.90
70548;DHT22;58099;43.406;3.698;2023-05-31T13:36:22;21.90;99.90
70548;DHT22;58099;43.406;3.698;2023-05-31T13:38:51;22.00;99.90
70548;DHT22;58099;43.406;3.698;2023-05-31T13:41:18;22.00;99.90
70548;DHT22;58099;43.406;3.698;2023-05-31T13:43:44;22.10;99.90
70548;DHT22;58099;43.406;3.698;2023-05-31T13:46:09;22.20;99.90
70548;DHT22;58099;43.406;3.698;2023-05-31T13:48:39;22.20;99.90
70548;DHT22;58099;43.406;3.698;2023-05-31T13:51:05;21.90;99.90
70548;DHT22;58099;43.406;3.698;2023-05-31T13:53:31;22.00;99.90
70548;DHT22;58099;43.406;3.698;2023-05-31T13:55:57;22.10;99.90
70548;DHT22;58099;43.406;3.698;2023-05-31T13:58:23;22.00;99.90
70548;DHT22;58099;43.406;3.698;2023-05-31T14:00:49;21.80;99.90
70548;DHT22;58099;43.406;3.698;2023-05-31T14:03:18;21.70;99.90
70548;DHT22;58099;43.406;3.698;2023-05-31T14:05:44;21.90;99.90
70548;DHT22;58099;43.406;3.698;2023-05-31T14:08:12;21.60;99.90
70548;DHT22;58099;43.406;3.698;2023-05-31T14:10:39;21.50;99.90
70548;DHT22;58099;43.406;3.698;2023-05-31T14:13:05;21.50;99.90
70548;DHT22;58099;43.406;3.698;2023-05-31T14:15:30;21.60;99.90
70548;DHT22;58099;43.406;3.698;2023-05-31T14:17:56;21.40;99.90
70548;DHT22;58099;43.406;3.698;2023-05-31T14:20:22;21.40;99.90
70548;DHT22;58099;43.406;3.698;2023-05-31T14:22:48;21.30;99.90
70548;DHT22;58099;43.406;3.698;2023-05-31T14:25:15;21.20;99.90
70548;DHT22;58099;43.406;3.698;2023-05-31T14:27:40;21.10;99.90
70548;DHT22;58099;43.406;3.698;2023-05-31T14:30:06;21.10;99.90
70548;DHT22;58099;43.406;3.698;2023-05-31T14:32:33;21.20;99.90
70548;DHT22;58099;43.406;3.698;2023-05-31T14:34:59;21.10;99.90
70548;DHT22;58099;43.406;3.698;2023-05-31T14:37:28;21.20;99.90
70548;DHT22;58099;43.406;3.698;2023-05-31T14:39:53;21.10;99.90
70548;DHT22;58099;43.406;3.698;2023-05-31T14:42:19;21.00;99.90
70548;DHT22;58099;43.406;3.698;2023-05-31T14:44:45;20.90;99.90
70548;DHT22;58099;43.406;3.698;2023-05-31T14:47:11;20.90;99.90
70548;DHT22;58099;43.406;3.698;2023-05-31T14:49:37;20.90;99.90
70548;DHT22;58099;43.406;3.698;2023-05-31T14:52:03;21.00;99.90
70548;DHT22;58099;43.406;3.698;2023-05-31T14:54:29;20.90;99.90
70548;DHT22;58099;43.406;3.698;2023-05-31T14:56:55;21.00;99.90
70548;DHT22;58099;43.406;3.698;2023-05-31T14:59:20;20.90;99.90
70548;DHT22;58099;43.406;3.698;2023-05-31T15:01:49;20.90;99.90
70548;DHT22;58099;43.406;3.698;2023-05-31T15:04:15;20.90;99.90
70548;DHT22;58099;43.406;3.698;2023-05-31T15:06:42;20.90;99.90
70548;DHT22;58099;43.406;3.698;2023-05-31T15:09:08;21.00;99.90
70548;DHT22;58099;43.406;3.698;2023-05-31T15:11:36;20.90;99.90
70548;DHT22;58099;43.406;3.698;2023-05-31T15:14:03;20.90;99.90
70548;DHT22;58099;43.406;3.698;2023-05-31T15:16:29;20.90;99.90
70548;DHT22;58099;43.406;3.698;2023-05-31T15:18:55;21.00;99.90
70548;DHT22;58099;43.406;3.698;2023-05-31T15:21:21;21.10;99.90
70548;DHT22;58099;43.406;3.698;2023-05-31T15:23:47;21.10;99.90
70548;DHT22;58099;43.406;3.698;2023-05-31T15:26:13;21.20;99.90
70548;DHT22;58099;43.406;3.698;2023-05-31T15:28:39;21.20;99.90
70548;DHT22;58099;43.406;3.698;2023-05-31T15:31:05;21.10;99.90
70548;DHT22;58099;43.406;3.698;2023-05-31T15:33:40;21.20;99.90
70548;DHT22;58099;43.406;3.698;2023-05-31T15:36:09;21.20;99.90
70548;DHT22;58099;43.406;3.698;2023-05-31T15:38:35;21.20;99.90
70548;DHT22;58099;43.406;3.698;2023-05-31T15:41:01;21.10;99.90
70548;DHT22;58099;43.406;3.698;2023-05-31T15:43:27;21.20;99.90
70548;DHT22;58099;43.406;3.698;2023-05-31T15:45:54;21.10;99.90
70548;DHT22;58099;43.406;3.698;2023-05-31T15:48:21;21.10;99.90